createdAt,value
2018-02-25T00:02:01.984Z,1.70
2018-02-25T00:07:05.853Z,1.30
2018-02-25T00:09:36.552Z,0.93
2018-02-25T00:12:06.407Z,1.40
2018-02-25T00:14:36.045Z,1.60
2018-02-25T00:17:07.547Z,1.43
2018-02-25T00:19:38.054Z,2.30
2018-02-25T00:22:16.726Z,1.20
2018-02-25T00:24:46.984Z,1.10
2018-02-25T00:27:16.681Z,1.60
2018-02-25T00:29:46.537Z,1.20
2018-02-25T00:32:16.970Z,1.20
2018-02-25T00:34:47.206Z,1.57
2018-02-25T00:37:18.062Z,1.13
2018-02-25T00:39:47.715Z,1.80
2018-02-25T00:42:20.450Z,1.40
2018-02-25T00:44:50.375Z,1.03
2018-02-25T00:47:20.359Z,1.23
2018-02-25T00:49:49.895Z,1.37
2018-02-25T00:52:26.604Z,1.57
2018-02-25T00:54:56.111Z,1.00
2018-02-25T00:57:25.885Z,1.33
2018-02-25T00:59:56.715Z,1.33
2018-02-25T01:02:26.398Z,1.23
2018-02-25T01:04:55.978Z,1.53
2018-02-25T01:07:28.392Z,1.40
2018-02-25T01:09:58.039Z,1.20
2018-02-25T01:12:31.148Z,1.03
2018-02-25T01:15:01.730Z,1.20
2018-02-25T01:17:32.612Z,1.10
2018-02-25T01:20:02.043Z,1.30
2018-02-25T01:22:39.815Z,1.57
2018-02-25T01:25:10.159Z,1.13
2018-02-25T01:27:39.920Z,1.73
2018-02-25T01:30:10.947Z,1.40
2018-02-25T01:32:40.483Z,1.67
2018-02-25T01:35:10.952Z,1.17
2018-02-25T01:37:40.900Z,1.70
2018-02-25T01:40:10.524Z,1.50
2018-02-25T01:42:43.855Z,1.67
2018-02-25T01:45:13.853Z,1.37
2018-02-25T01:47:47.083Z,1.40
2018-02-25T01:50:16.737Z,1.60
2018-02-25T01:52:48.312Z,1.30
2018-02-25T01:55:18.297Z,1.30
2018-02-25T01:57:49.976Z,1.70
2018-02-25T02:00:21.207Z,1.33
2018-02-25T02:02:52.861Z,1.43
2018-02-25T02:05:22.548Z,1.70
2018-02-25T02:14:40.222Z,1.20
2018-02-25T02:17:10.033Z,2.27
2018-02-25T02:19:39.901Z,1.13
2018-02-25T02:22:10.033Z,1.93
2018-02-25T02:24:39.962Z,1.60
2018-02-25T02:27:09.935Z,2.30
2018-02-25T02:29:40.144Z,1.40
2018-02-25T02:32:10.112Z,2.33
2018-02-25T02:34:40.106Z,2.57
2018-02-25T02:37:10.451Z,1.87
2018-02-25T02:39:40.251Z,2.10
2018-02-25T02:42:12.176Z,1.63
2018-02-25T02:44:46.019Z,1.83
2018-02-25T02:47:15.765Z,1.60
2018-02-25T02:49:45.619Z,1.40
2018-02-25T02:52:17.000Z,2.50
2018-02-25T02:54:46.744Z,2.00
2018-02-25T02:57:19.344Z,2.07
2018-02-25T02:59:49.561Z,1.70
2018-02-25T03:02:20.940Z,1.93
2018-02-25T03:04:52.010Z,2.20
2018-02-25T03:07:23.409Z,1.90
2018-02-25T03:09:53.310Z,1.93
2018-02-25T03:12:25.293Z,1.90
2018-02-25T03:14:55.875Z,2.20
2018-02-25T03:17:27.066Z,2.30
2018-02-25T03:19:57.100Z,1.80
2018-02-25T03:22:30.100Z,2.20
2018-02-25T03:25:00.152Z,2.87
2018-02-25T03:27:31.758Z,1.60
2018-02-25T03:30:01.757Z,1.90
2018-02-25T03:32:32.965Z,2.40
2018-02-25T03:35:04.163Z,2.17
2018-02-25T03:37:35.056Z,2.87
2018-02-25T03:40:05.058Z,2.10
2018-02-25T03:42:38.779Z,1.83
2018-02-25T03:45:08.810Z,2.20
2018-02-25T03:47:39.341Z,2.10
2018-02-25T03:50:09.873Z,2.30
2018-02-25T03:52:41.668Z,2.07
2018-02-25T03:55:11.544Z,2.33
2018-02-25T03:57:43.715Z,2.20
2018-02-25T04:00:13.575Z,2.23
2018-02-25T04:02:46.214Z,2.40
2018-02-25T04:05:17.253Z,1.93
2018-02-25T04:07:49.133Z,2.30
2018-02-25T04:10:19.113Z,2.10
2018-02-25T04:12:51.212Z,2.20
2018-02-25T04:15:21.005Z,2.07
2018-02-25T04:17:53.962Z,2.80
2018-02-25T04:20:24.472Z,2.17
2018-02-25T04:22:56.831Z,2.07
2018-02-25T04:25:26.971Z,2.47
2018-02-25T04:27:58.934Z,2.43
2018-02-25T04:30:29.174Z,2.78
2018-02-25T04:33:01.107Z,2.43
2018-02-25T04:35:32.208Z,2.07
2018-02-25T04:38:02.422Z,1.90
2018-02-25T04:40:32.594Z,2.70
2018-02-25T04:43:06.169Z,2.03
2018-02-25T04:45:36.862Z,2.20
2018-02-25T04:48:08.034Z,2.47
2018-02-25T04:50:38.141Z,2.47
2018-02-25T04:53:09.710Z,2.75
2018-02-25T04:55:39.693Z,2.60
2018-02-25T04:58:13.269Z,1.92
2018-02-25T05:00:43.255Z,2.03
2018-02-25T05:03:15.259Z,1.90
2018-02-25T05:05:45.607Z,2.40
2018-02-25T05:08:16.890Z,2.70
2018-02-25T05:10:46.602Z,2.33
2018-02-25T05:13:19.148Z,2.23
2018-02-25T05:15:49.015Z,2.53
2018-02-25T05:18:21.443Z,2.13
2018-02-25T05:20:51.468Z,2.10
2018-02-25T05:23:25.169Z,2.53
2018-02-25T05:25:55.447Z,2.23
2018-02-25T05:28:27.053Z,2.90
2018-02-25T05:31:01.319Z,2.20
2018-02-25T05:33:31.395Z,2.67
2018-02-25T05:36:01.458Z,2.77
2018-02-25T05:38:31.529Z,2.15
2018-02-25T05:41:02.601Z,1.83
2018-02-25T05:43:32.433Z,2.45
2018-02-25T05:46:02.183Z,2.10
2018-02-25T05:48:33.391Z,2.60
2018-02-25T05:51:03.528Z,2.27
2018-02-25T05:53:36.423Z,2.33
2018-02-25T05:56:08.185Z,2.33
2018-02-25T05:58:39.398Z,2.03
2018-02-25T06:01:09.858Z,2.43
2018-02-25T06:03:41.138Z,2.30
2018-02-25T06:06:11.310Z,2.25
2018-02-25T06:08:42.679Z,2.90
2018-02-25T06:11:13.685Z,1.98
2018-02-25T06:13:44.951Z,2.70
2018-02-25T06:16:16.061Z,2.42
2018-02-25T06:18:46.367Z,2.62
2018-02-25T06:21:16.922Z,2.50
2018-02-25T06:23:48.817Z,2.43
2018-02-25T06:26:18.878Z,2.50
2018-02-25T06:28:52.328Z,2.72
2018-02-25T06:31:23.116Z,2.15
2018-02-25T06:33:54.681Z,2.60
2018-02-25T06:36:24.783Z,2.93
2018-02-25T06:38:56.833Z,3.27
2018-02-25T06:41:26.900Z,2.95
2018-02-25T06:44:00.847Z,2.25
2018-02-25T06:46:30.877Z,2.83
2018-02-25T06:49:01.318Z,2.67
2018-02-25T06:51:31.309Z,2.70
2018-02-25T06:54:04.629Z,2.67
2018-02-25T06:56:35.961Z,3.33
2018-02-25T06:59:06.378Z,2.57
2018-02-25T07:01:36.480Z,3.43
2018-02-25T07:04:09.196Z,3.37
2018-02-25T07:06:39.207Z,3.08
2018-02-25T07:09:13.075Z,2.62
2018-02-25T07:11:48.242Z,2.97
2018-02-25T07:14:18.355Z,3.63
2018-02-25T07:16:49.178Z,3.10
2018-02-25T07:19:19.096Z,3.37
2018-02-25T07:21:49.000Z,4.05
2018-02-25T07:24:19.063Z,3.12
2018-02-25T07:26:48.831Z,3.00
2018-02-25T07:29:19.034Z,4.32
2018-02-25T07:31:50.020Z,3.77
2018-02-25T07:34:21.108Z,4.00
2018-02-25T07:36:51.697Z,2.83
2018-02-25T07:39:25.233Z,4.20
2018-02-25T07:41:55.778Z,3.75
2018-02-25T07:44:26.348Z,4.43
2018-02-25T07:46:57.123Z,4.60
2018-02-25T07:49:28.608Z,4.22
2018-02-25T07:51:58.576Z,4.60
2018-02-25T07:54:30.292Z,4.60
2018-02-25T07:56:59.917Z,4.07
2018-02-25T07:59:32.570Z,3.62
2018-02-25T08:02:02.209Z,3.20
2018-02-25T08:04:33.656Z,3.87
2018-02-25T08:07:03.357Z,4.53
2018-02-25T08:09:36.411Z,4.40
2018-02-25T08:12:06.300Z,4.22
2018-02-25T08:14:38.096Z,4.90
2018-02-25T08:17:07.722Z,4.37
2018-02-25T08:19:39.611Z,4.13
2018-02-25T08:22:09.180Z,5.28
2018-02-25T08:24:46.195Z,3.47
2018-02-25T08:27:16.813Z,4.32
2018-02-25T08:29:46.510Z,3.67
2018-02-25T08:32:16.018Z,4.37
2018-02-25T08:34:47.202Z,3.80
2018-02-25T08:37:17.481Z,4.13
2018-02-25T08:39:48.625Z,4.57
2018-02-25T08:42:18.481Z,4.05
2018-02-25T08:44:51.724Z,3.90
2018-02-25T08:47:21.172Z,4.90
2018-02-25T08:49:53.081Z,4.27
2018-02-25T08:52:22.562Z,4.77
2018-02-25T08:54:55.902Z,4.00
2018-02-25T08:57:25.783Z,3.77
2018-02-25T08:59:59.152Z,3.77
2018-02-25T09:02:28.698Z,3.77
2018-02-25T09:05:01.510Z,3.10
2018-02-25T09:07:31.021Z,2.87
2018-02-25T09:10:03.321Z,4.23
2018-02-25T09:12:32.903Z,3.93
2018-02-25T09:15:06.004Z,4.22
2018-02-25T09:17:35.887Z,4.30
2018-02-25T09:20:08.831Z,2.90
2018-02-25T09:22:38.383Z,3.10
2018-02-25T09:25:11.550Z,3.97
2018-02-25T09:27:41.224Z,3.37
2018-02-25T09:30:14.488Z,3.90
2018-02-25T09:32:45.030Z,3.63
2018-02-25T09:35:16.113Z,4.10
2018-02-25T09:37:45.500Z,3.37
2018-02-25T09:40:17.889Z,3.53
2018-02-25T09:42:47.316Z,3.40
2018-02-25T09:45:19.373Z,3.20
2018-02-25T09:47:49.897Z,3.60
2018-02-25T09:50:23.082Z,3.33
2018-02-25T09:52:52.429Z,3.40
2018-02-25T09:55:24.115Z,3.40
2018-02-25T09:57:53.649Z,3.63
2018-02-25T10:00:26.468Z,3.57
2018-02-25T10:02:56.286Z,3.13
2018-02-25T10:05:29.018Z,3.03
2018-02-25T10:07:58.540Z,3.93
2018-02-25T10:10:31.279Z,3.90
2018-02-25T10:13:00.674Z,3.13
2018-02-25T10:15:33.222Z,3.17
2018-02-25T10:18:03.046Z,2.77
2018-02-25T10:20:35.455Z,2.70
2018-02-25T10:23:04.919Z,2.80
2018-02-25T10:25:38.016Z,2.57
2018-02-25T10:28:07.479Z,2.73
2018-02-25T10:30:39.420Z,3.33
2018-02-25T10:35:50.876Z,3.57
2018-02-25T10:38:20.466Z,2.40
2018-02-25T10:40:50.151Z,3.33
2018-02-25T10:43:20.692Z,2.70
2018-02-25T10:45:50.059Z,3.60
2018-02-25T10:48:20.560Z,2.87
2018-02-25T10:50:49.966Z,2.30
2018-02-25T10:53:19.457Z,3.23
2018-02-25T10:55:49.797Z,2.70
2018-02-25T10:58:19.371Z,3.00
2018-02-25T11:00:56.250Z,4.60
2018-02-25T11:03:27.064Z,3.20
2018-02-25T11:05:57.475Z,3.90
2018-02-25T11:08:26.961Z,3.03
2018-02-25T11:10:57.907Z,2.77
2018-02-25T11:13:27.366Z,3.70
2018-02-25T11:15:59.939Z,3.37
2018-02-25T11:18:29.613Z,3.07
2018-02-25T11:21:03.503Z,3.47
2018-02-25T11:23:32.974Z,3.10
2018-02-25T11:26:04.037Z,3.23
2018-02-25T11:28:33.499Z,4.87
2018-02-25T11:31:06.965Z,2.83
2018-02-25T11:33:36.426Z,2.83
2018-02-25T11:36:13.665Z,3.40
2018-02-25T11:38:43.441Z,2.63
2018-02-25T11:41:13.505Z,3.20
2018-02-25T11:43:42.925Z,2.30
2018-02-25T11:46:13.898Z,2.70
2018-02-25T11:48:43.270Z,2.57
2018-02-25T11:51:20.578Z,2.73
2018-02-25T11:53:50.208Z,2.10
2018-02-25T11:56:20.379Z,2.20
2018-02-25T11:58:49.955Z,2.93
2018-02-25T12:01:20.413Z,2.53
2018-02-25T12:03:49.923Z,1.90
2018-02-25T12:06:24.084Z,2.13
2018-02-25T12:08:54.626Z,2.77
2018-02-25T12:11:24.840Z,2.77
2018-02-25T12:13:54.295Z,3.20
2018-02-25T12:16:27.960Z,4.43
2018-02-25T12:18:57.437Z,3.27
2018-02-25T12:21:29.972Z,2.40
2018-02-25T12:24:02.383Z,2.97
2018-02-25T12:26:32.536Z,3.13
2018-02-25T12:29:02.087Z,3.47
2018-02-25T12:31:33.283Z,3.33
2018-02-25T12:34:02.733Z,2.93
2018-02-25T12:36:35.529Z,3.30
2018-02-25T12:39:05.612Z,2.27
2018-02-25T12:41:37.533Z,2.30
2018-02-25T12:44:06.894Z,1.77
2018-02-25T12:46:41.577Z,2.00
2018-02-25T12:49:11.040Z,2.90
2018-02-25T12:51:42.677Z,2.63
2018-02-25T12:54:13.088Z,2.20
2018-02-25T12:56:46.078Z,2.20
2018-02-25T12:59:15.510Z,2.00
2018-02-25T13:01:47.778Z,2.80
2018-02-25T13:04:17.217Z,2.67
2018-02-25T13:06:50.080Z,2.50
2018-02-25T13:09:20.939Z,2.83
2018-02-25T13:11:51.808Z,2.20
2018-02-25T13:14:21.191Z,1.73
2018-02-25T13:16:55.609Z,1.83
2018-02-25T13:19:24.969Z,2.17
2018-02-25T13:21:56.870Z,2.43
2018-02-25T13:24:27.359Z,1.70
2018-02-25T13:27:00.753Z,2.10
2018-02-25T13:29:30.236Z,2.40
2018-02-25T13:32:01.460Z,2.40
2018-02-25T13:34:30.826Z,1.90
2018-02-25T13:37:03.746Z,2.77
2018-02-25T13:39:33.377Z,2.80
2018-02-25T13:42:10.513Z,3.23
2018-02-25T13:44:39.976Z,3.17
2018-02-25T13:47:10.180Z,2.53
2018-02-25T13:49:40.318Z,2.30
2018-02-25T13:52:17.895Z,2.30
2018-02-25T13:54:48.019Z,2.80
2018-02-25T13:57:17.519Z,2.13
2018-02-25T13:59:47.427Z,2.50
2018-02-25T14:02:17.517Z,2.10
2018-02-25T14:04:47.111Z,2.37
2018-02-25T14:07:20.230Z,2.10
2018-02-25T14:09:49.754Z,2.60
2018-02-25T14:12:20.486Z,2.83
2018-02-25T14:14:50.232Z,2.97
2018-02-25T14:17:23.665Z,2.57
2018-02-25T14:19:53.367Z,1.67
2018-02-25T14:22:26.631Z,2.17
2018-02-25T14:24:56.074Z,2.87
2018-02-25T14:27:27.472Z,2.03
2018-02-25T14:29:58.070Z,4.33
2018-02-25T14:32:29.011Z,2.87
2018-02-25T14:34:58.455Z,1.93
2018-02-25T14:37:31.426Z,1.90
2018-02-25T14:40:00.971Z,1.50
2018-02-25T14:42:33.819Z,2.90
2018-02-25T14:45:03.473Z,2.13
2018-02-25T14:47:36.349Z,2.40
2018-02-25T14:50:05.783Z,2.47
2018-02-25T14:52:38.026Z,1.90
2018-02-25T14:55:07.512Z,3.57
2018-02-25T14:57:40.420Z,3.33
2018-02-25T15:00:10.173Z,2.07
2018-02-25T15:02:43.966Z,3.47
2018-02-25T15:05:14.163Z,2.80
2018-02-25T15:07:44.847Z,2.53
2018-02-25T15:10:14.631Z,2.77
2018-02-25T15:12:47.130Z,2.23
2018-02-25T15:15:16.576Z,2.57
2018-02-25T15:17:49.682Z,3.93
2018-02-25T15:20:19.152Z,2.57
2018-02-25T15:22:52.080Z,2.43
2018-02-25T15:25:23.574Z,2.80
2018-02-25T15:27:54.542Z,2.53
2018-02-25T15:30:24.043Z,2.37
2018-02-25T15:32:57.047Z,2.17
2018-02-25T15:35:26.477Z,2.97
2018-02-25T15:37:59.941Z,2.83
2018-02-25T15:40:29.759Z,2.90
2018-02-25T15:43:02.357Z,2.57
2018-02-25T15:45:32.494Z,3.50
2018-02-25T15:48:05.456Z,3.20
2018-02-25T15:50:35.683Z,2.60
2018-02-25T15:53:07.644Z,2.67
2018-02-25T15:55:38.257Z,2.83
2018-02-25T15:58:09.237Z,2.27
2018-02-25T16:00:38.770Z,3.00
2018-02-25T16:03:12.412Z,2.97
2018-02-25T16:05:42.589Z,3.03
2018-02-25T16:08:15.125Z,2.53
2018-02-25T16:10:44.927Z,2.13
2018-02-25T16:13:15.622Z,2.70
2018-02-25T16:15:45.107Z,2.13
2018-02-25T16:18:18.628Z,2.17
2018-02-25T16:20:47.985Z,2.97
2018-02-25T16:23:21.126Z,2.77
2018-02-25T16:25:50.819Z,2.33
2018-02-25T16:28:23.575Z,1.97
2018-02-25T16:30:53.049Z,1.97
2018-02-25T16:33:23.509Z,3.27
2018-02-25T16:35:52.999Z,2.33
2018-02-25T16:38:31.106Z,1.70
2018-02-25T16:41:00.877Z,2.07
2018-02-25T16:43:30.292Z,2.63
2018-02-25T16:45:59.992Z,2.00
2018-02-25T16:48:30.523Z,2.60
2018-02-25T16:51:00.792Z,2.60
2018-02-25T16:53:32.928Z,2.43
2018-02-25T16:56:02.346Z,2.50
2018-02-25T16:58:34.997Z,2.33
2018-02-25T17:01:04.666Z,3.23
2018-02-25T17:03:38.525Z,2.27
2018-02-25T17:06:08.160Z,2.17
2018-02-25T17:08:41.784Z,1.97
2018-02-25T17:11:12.815Z,3.13
2018-02-25T17:13:43.988Z,2.10
2018-02-25T17:16:14.233Z,2.60
2018-02-25T17:18:46.312Z,2.23
2018-02-25T17:21:16.068Z,2.40
2018-02-25T17:23:49.104Z,2.20
2018-02-25T17:26:18.887Z,1.83
2018-02-25T17:28:51.129Z,4.20
2018-02-25T17:31:20.651Z,3.30
2018-02-25T17:33:54.554Z,2.67
2018-02-25T17:36:24.399Z,2.37
2018-02-25T17:38:56.263Z,2.30
2018-02-25T17:41:26.243Z,2.23
2018-02-25T17:43:58.447Z,2.43
2018-02-25T17:46:28.032Z,2.67
2018-02-25T17:49:01.961Z,2.03
2018-02-25T17:51:31.469Z,2.10
2018-02-25T17:54:03.251Z,1.97
2018-02-25T17:59:07.183Z,1.80
2018-02-25T18:01:37.362Z,2.62
2018-02-25T18:04:10.754Z,1.83
2018-02-25T18:06:40.265Z,2.03
2018-02-25T18:09:11.109Z,2.07
2018-02-25T18:11:41.322Z,2.03
2018-02-25T18:14:14.570Z,2.20
2018-02-25T18:16:45.074Z,2.07
2018-02-25T18:19:16.210Z,2.43
2018-02-25T18:21:46.377Z,2.23
2018-02-25T18:24:19.059Z,2.87
2018-02-25T18:26:49.335Z,2.07
2018-02-25T18:29:20.682Z,1.93
2018-02-25T18:31:50.624Z,2.10
2018-02-25T18:34:21.878Z,2.57
2018-02-25T18:36:52.222Z,2.00
2018-02-25T18:39:24.608Z,2.60
2018-02-25T18:41:54.353Z,2.57
2018-02-25T18:44:27.715Z,1.97
2018-02-25T18:47:00.169Z,2.03
2018-02-25T18:49:29.979Z,2.87
2018-02-25T18:52:00.296Z,2.57
2018-02-25T18:54:30.185Z,1.93
2018-02-25T18:56:59.770Z,1.70
2018-02-25T18:59:32.802Z,1.57
2018-02-25T19:02:03.437Z,2.07
2018-02-25T19:04:32.959Z,2.10
2018-02-25T19:07:02.443Z,1.83
2018-02-25T19:09:36.347Z,1.90
2018-02-25T19:12:06.685Z,1.70
2018-02-25T19:14:39.446Z,2.03
2018-02-25T19:17:10.000Z,1.97
2018-02-25T19:19:39.523Z,1.80
2018-02-25T19:22:09.580Z,2.00
2018-02-25T19:24:43.030Z,2.00
2018-02-25T19:27:12.789Z,2.37
2018-02-25T19:29:45.243Z,3.20
2018-02-25T19:32:14.800Z,1.90
2018-02-25T19:34:48.495Z,2.13
2018-02-25T19:37:24.113Z,2.57
2018-02-25T19:40:01.778Z,2.30
2018-02-25T19:42:31.346Z,1.83
2018-02-25T19:45:01.525Z,2.00
2018-02-25T19:47:31.115Z,2.67
2018-02-25T19:50:00.620Z,1.73
2018-02-25T19:52:30.603Z,1.97
2018-02-25T19:55:00.500Z,2.77
2018-02-25T19:57:30.116Z,1.73
2018-02-25T20:00:00.963Z,1.50
2018-02-25T20:02:30.601Z,1.70
2018-02-25T20:05:01.908Z,1.43
2018-02-25T20:07:31.540Z,2.00
2018-02-25T20:10:10.010Z,1.93
2018-02-25T20:12:39.606Z,1.80
2018-02-25T20:15:11.225Z,1.83
2018-02-25T20:17:41.299Z,2.07
2018-02-25T20:20:10.947Z,1.83
2018-02-25T20:22:40.592Z,1.67
2018-02-25T20:25:12.851Z,1.87
2018-02-25T20:27:42.790Z,2.30
2018-02-25T20:30:15.181Z,1.90
2018-02-25T20:32:44.638Z,1.70
2018-02-25T20:35:21.591Z,1.80
2018-02-25T20:37:51.167Z,1.90
2018-02-25T20:40:20.833Z,2.13
2018-02-25T20:42:50.397Z,2.00
2018-02-25T20:45:20.897Z,1.80
2018-02-25T20:47:51.556Z,1.87
2018-02-25T20:50:24.167Z,1.67
2018-02-25T20:52:54.556Z,2.93
2018-02-25T20:55:25.760Z,1.67
2018-02-25T20:57:56.128Z,1.73
2018-02-25T21:00:27.645Z,2.00
2018-02-25T21:02:57.984Z,1.60
2018-02-25T21:05:28.286Z,2.58
2018-02-25T21:08:01.248Z,2.10
2018-02-25T21:10:32.148Z,2.10
2018-02-25T21:13:02.659Z,1.90
2018-02-25T21:15:32.627Z,1.53
2018-02-25T21:18:02.134Z,1.83
2018-02-25T21:20:36.143Z,1.50
2018-02-25T21:23:06.037Z,1.67
2018-02-25T21:25:36.827Z,1.50
2018-02-25T21:28:06.179Z,1.70
2018-02-25T21:30:39.734Z,1.97
2018-02-25T21:33:09.193Z,1.70
2018-02-25T21:35:42.552Z,1.60
2018-02-25T21:38:12.074Z,1.63
2018-02-25T21:40:45.510Z,1.40
2018-02-25T21:43:15.140Z,1.40
2018-02-25T21:45:47.772Z,1.13
2018-02-25T21:48:18.445Z,1.30
2018-02-25T21:50:48.438Z,1.90
2018-02-25T21:53:17.902Z,1.20
2018-02-25T21:55:55.534Z,1.20
2018-02-25T22:00:31.985Z,1.00
2018-02-25T22:03:08.029Z,1.40
2018-02-25T22:05:38.339Z,1.97
2018-02-25T22:08:08.119Z,1.40
2018-02-25T22:10:38.283Z,1.17
2018-02-25T22:13:08.492Z,1.60
2018-02-25T22:15:38.989Z,1.17
2018-02-25T22:18:08.548Z,1.47
2018-02-25T22:20:38.065Z,1.10
2018-02-25T22:23:08.006Z,1.63
2018-02-25T22:25:37.604Z,1.00
2018-02-25T22:28:07.750Z,1.73
2018-02-25T22:30:37.698Z,1.47
2018-02-25T22:33:10.409Z,1.10
2018-02-25T22:35:40.679Z,1.10
2018-02-25T22:38:14.350Z,1.17
2018-02-25T22:40:44.074Z,1.70
2018-02-25T22:43:15.771Z,1.07
2018-02-25T22:45:45.914Z,1.90
2018-02-25T22:48:17.093Z,1.90
2018-02-25T22:50:46.811Z,1.50
2018-02-25T22:53:18.948Z,1.00
2018-02-25T22:55:49.339Z,1.33
2018-02-25T22:58:20.563Z,1.23
2018-02-25T23:00:50.700Z,1.43
2018-02-25T23:03:23.266Z,1.17
2018-02-25T23:05:52.937Z,1.20
2018-02-25T23:08:25.343Z,1.23
2018-02-25T23:10:54.918Z,1.30
2018-02-25T23:13:26.335Z,1.17
2018-02-25T23:15:56.402Z,1.00
2018-02-25T23:18:28.151Z,1.27
2018-02-25T23:20:57.723Z,1.20
2018-02-25T23:23:31.379Z,1.30
2018-02-25T23:26:08.233Z,1.17
2018-02-25T23:28:37.803Z,1.57
2018-02-25T23:31:08.125Z,1.27
2018-02-25T23:33:38.606Z,1.40
2018-02-25T23:36:09.692Z,1.40
2018-02-25T23:38:39.984Z,1.40
2018-02-25T23:41:09.539Z,1.40
2018-02-25T23:43:40.234Z,1.60
2018-02-25T23:46:10.672Z,1.20
2018-02-25T23:48:41.278Z,1.40
2018-02-25T23:51:10.985Z,1.10
2018-02-25T23:53:43.960Z,1.33
2018-02-25T23:56:14.008Z,1.30
2018-02-25T23:58:47.318Z,1.30
